In Rescue
 
Open Full Screen Window  High Contrast Mode
Wind Gusting 00 knots
06
May 20, 2019 1:53 PM CDT
Weather Information
Wind Direction
  250 °
Wind Speed
  06 kt (7 mph)
Wind Gust
  00 kt (0 mph)
Altimeter
30.16 in
Visibility
10 SM
Temperature
16° C
61° F
Dewpoint
-01° C
30° F
Humidity
31%
1hr Rain Fall
00.00 in.
24hr Rain Fall
00.00 in.
Sky Condition
Clear
VFR

METAR KXVG 201853Z AUTO 25006KT 10SM CLR 16/M01 A3016 RMK AO2

FAA Disclaimer: The data displayed is for advisory purposes only and is not to be used for flight planning or operations.